Time;durP1;ratioP1;P1;durP2;ratioP2;P2;SDS_P1;SDS_P2;PMS_P1;PMS_P2;Temp;Humidity;BMP_temperature;BMP_pressure;BME280_temperature;BME280_humidity;BME280_pressure;Samples;Min_cycle;Max_cycle;Signal;HPM_P1;HPM_P2
2023/07/13 00:00:24;;;;;;;4.63;1.50;;;;;;;15.64;64.71;100590.47;4974524;28;20042;-44
2023/07/13 00:02:53;;;;;;;3.45;1.05;;;;;;;15.58;65.17;100592.00;4973046;28;20425;-45
2023/07/13 00:05:21;;;;;;;3.95;1.73;;;;;;;15.56;65.42;100596.34;4974599;28;20109;-44
2023/07/13 00:07:50;;;;;;;1.40;0.82;;;;;;;15.52;65.69;100596.31;4974957;28;20105;-45
2023/07/13 00:10:17;;;;;;;1.63;1.00;;;;;;;15.49;66.09;100596.28;4974494;28;20548;-45
2023/07/13 00:12:45;;;;;;;3.22;1.60;;;;;;;15.49;66.26;100587.91;4973705;28;20042;-44
2023/07/13 00:15:29;;;;;;;2.65;0.90;;;;;;;15.47;66.42;100593.84;4965419;28;20521;-45
2023/07/13 00:17:56;;;;;;;6.70;1.17;;;;;;;15.40;66.48;100584.56;4973799;28;20042;-44
2023/07/13 00:20:27;;;;;;;2.42;1.42;;;;;;;15.33;66.74;100590.09;4968742;28;20390;-46
2023/07/13 00:22:54;;;;;;;3.58;1.23;;;;;;;15.27;67.00;100592.41;4974720;28;20497;-45
2023/07/13 00:25:24;;;;;;;8.75;1.27;;;;;;;15.24;67.16;100593.97;4973248;28;20066;-45
2023/07/13 00:27:51;;;;;;;3.25;0.93;;;;;;;15.25;67.21;100589.97;4974354;28;20035;-44
2023/07/13 00:30:18;;;;;;;2.10;1.30;;;;;;;15.31;67.49;100595.22;4973644;28;20054;-45
2023/07/13 00:32:45;;;;;;;4.65;1.20;;;;;;;15.33;67.40;100590.09;4974170;28;20053;-48
2023/07/13 00:35:15;;;;;;;4.43;1.27;;;;;;;15.29;67.42;100586.44;4974446;28;20043;-44
2023/07/13 00:37:42;;;;;;;4.93;1.20;;;;;;;15.30;67.37;100585.25;4973151;28;20119;-44
2023/07/13 00:40:11;;;;;;;4.03;1.77;;;;;;;15.27;67.65;100587.59;4974136;28;20058;-45
2023/07/13 00:42:38;;;;;;;5.50;1.33;;;;;;;15.24;67.88;100591.19;4974441;28;20061;-45
2023/07/13 00:45:11;;;;;;;5.53;1.35;;;;;;;15.25;67.92;100589.97;4967115;28;20121;-45
2023/07/13 00:47:39;;;;;;;1.90;1.20;;;;;;;15.25;67.91;100589.97;4973787;28;20050;-45
2023/07/13 00:50:10;;;;;;;2.95;1.23;;;;;;;15.27;68.13;100597.97;4973734;28;20071;-46
2023/07/13 00:52:40;;;;;;;5.90;1.55;;;;;;;15.22;68.02;100590.75;4974018;28;20397;-45
2023/07/13 00:55:09;;;;;;;1.80;0.98;;;;;;;15.26;68.51;100596.38;4971621;28;20113;-44
2023/07/13 00:57:36;;;;;;;5.97;1.30;;;;;;;15.30;68.30;100604.78;4974162;28;20109;-44
2023/07/13 01:00:06;;;;;;;4.15;1.38;;;;;;;15.27;68.31;100598.75;4956262;28;20046;-45
2023/07/13 01:02:33;;;;;;;2.67;1.23;;;;;;;15.30;68.46;100602.00;4973736;28;20409;-44
2023/07/13 01:05:01;;;;;;;6.57;1.75;;;;;;;15.21;68.62;100594.72;4973473;28;20098;-45
2023/07/13 01:07:28;;;;;;;7.18;1.92;;;;;;;15.16;68.94;100591.47;4973034;28;20493;-44
2023/07/13 01:09:55;;;;;;;10.35;2.25;;;;;;;15.13;69.12;100593.03;4973718;28;20053;-44
2023/07/13 01:12:23;;;;;;;6.18;1.73;;;;;;;15.08;69.37;100582.22;4971799;28;20401;-44
2023/07/13 01:14:57;;;;;;;3.47;1.10;;;;;;;15.08;69.59;100585.00;4969805;28;20038;-46
2023/07/13 01:17:24;;;;;;;5.82;2.03;;;;;;;15.13;69.60;100592.22;4969018;28;20042;-45
2023/07/13 01:19:51;;;;;;;4.78;1.90;;;;;;;15.12;69.79;100588.63;4972137;28;20058;-45
2023/07/13 01:22:19;;;;;;;8.20;2.05;;;;;;;15.09;69.97;100597.75;4972811;28;20039;-45
2023/07/13 01:24:47;;;;;;;5.57;2.05;;;;;;;15.07;70.11;100594.53;4955809;28;20034;-44
2023/07/13 01:27:21;;;;;;;6.65;1.40;;;;;;;15.12;70.15;100591.41;4972333;28;20058;-44
2023/07/13 01:29:47;;;;;;;4.40;2.00;;;;;;;15.14;70.00;100588.25;4973414;28;20050;-45
2023/07/13 01:32:22;;;;;;;6.18;1.48;;;;;;;15.10;70.12;100588.22;4973213;28;20448;-44
2023/07/13 01:34:54;;;;;;;8.23;1.75;;;;;;;15.14;70.29;100583.47;4973555;28;20110;-45
2023/07/13 01:37:21;;;;;;;4.35;1.30;;;;;;;15.14;70.17;100591.84;4973241;28;20785;-45
2023/07/13 01:39:48;;;;;;;4.68;1.50;;;;;;;15.09;70.34;100588.59;4972651;28;20046;-44
2023/07/13 01:42:15;;;;;;;5.30;1.70;;;;;;;15.07;70.57;100588.97;4973114;28;20059;-44
2023/07/13 01:44:43;;;;;;;6.95;1.52;;;;;;;15.03;70.57;100582.56;4972355;28;20078;-45
2023/07/13 01:47:10;;;;;;;4.65;1.15;;;;;;;15.01;70.79;100579.31;4972375;28;20054;-45
2023/07/13 01:49:37;;;;;;;7.63;1.52;;;;;;;14.96;71.05;100576.88;4973147;28;20367;-46
2023/07/13 01:52:05;;;;;;;5.45;3.20;;;;;;;14.98;71.14;100580.09;4972790;28;20101;-45
2023/07/13 01:54:33;;;;;;;5.13;1.38;;;;;;;15.02;70.98;100580.94;4973112;28;20046;-45
2023/07/13 01:57:00;;;;;;;5.93;1.55;;;;;;;14.99;71.07;100569.72;4972673;28;20043;-46
2023/07/13 01:59:27;;;;;;;5.53;1.55;;;;;;;14.97;71.26;100578.50;4972088;28;20736;-45
2023/07/13 02:01:54;;;;;;;4.25;1.98;;;;;;;14.91;71.36;100585.56;4972305;28;20154;-45
2023/07/13 02:04:21;;;;;;;6.75;1.50;;;;;;;14.88;71.42;100580.75;4971742;28;20070;-45
2023/07/13 02:06:48;;;;;;;3.08;1.60;;;;;;;14.85;71.52;100592.66;4972522;28;20094;-44
2023/07/13 02:09:15;;;;;;;5.03;2.00;;;;;;;14.83;71.62;100583.88;4972166;28;20050;-45
2023/07/13 02:11:42;;;;;;;6.20;1.73;;;;;;;14.83;71.81;100577.47;4972510;28;20046;-44
2023/07/13 02:14:09;;;;;;;7.55;1.63;;;;;;;14.84;71.80;100584.69;4971326;28;20054;-48
2023/07/13 02:16:36;;;;;;;5.05;1.67;;;;;;;14.80;71.77;100584.63;4965884;28;20078;-45
2023/07/13 02:19:03;;;;;;;4.00;1.38;;;;;;;14.76;71.90;100588.53;4970646;28;20109;-44
2023/07/13 02:21:30;;;;;;;4.63;1.63;;;;;;;14.80;72.16;100581.06;4968548;28;20051;-45
2023/07/13 02:23:57;;;;;;;6.00;1.50;;;;;;;14.80;71.93;100579.03;4967979;28;20057;-44
2023/07/13 02:26:24;;;;;;;6.78;2.13;;;;;;;14.81;72.17;100577.88;4969200;28;20038;-45
2023/07/13 02:28:51;;;;;;;4.15;1.92;;;;;;;14.80;72.20;100573.47;4971821;28;20390;-44
2023/07/13 02:31:18;;;;;;;4.90;1.50;;;;;;;14.79;72.11;100577.44;4972430;28;20043;-44
2023/07/13 02:33:45;;;;;;;4.57;1.77;;;;;;;14.75;72.27;100589.72;4971166;28;20121;-44
2023/07/13 02:36:14;;;;;;;7.18;1.63;;;;;;;14.75;72.21;100582.16;4972540;28;20046;-44
2023/07/13 02:38:41;;;;;;;8.10;1.85;;;;;;;14.75;72.29;100589.72;4971275;28;20386;-45
2023/07/13 02:41:09;;;;;;;5.80;1.58;;;;;;;14.75;72.46;100582.16;4972170;28;20035;-44
2023/07/13 02:43:37;;;;;;;5.68;2.25;;;;;;;14.77;72.25;100593.75;4968846;28;20053;-45
2023/07/13 02:46:07;;;;;;;6.28;1.98;;;;;;;14.75;72.32;100598.88;4968100;28;20058;-46
2023/07/13 02:48:35;;;;;;;5.03;1.75;;;;;;;14.76;72.29;100594.13;4971527;28;20031;-44
2023/07/13 02:51:02;;;;;;;3.25;1.65;;;;;;;14.76;72.23;100588.53;4970078;28;20034;-46
2023/07/13 02:53:29;;;;;;;9.65;2.00;;;;;;;14.73;72.60;100590.09;4970976;28;20051;-46
2023/07/13 02:55:56;;;;;;;10.73;2.20;;;;;;;14.72;72.71;100588.47;4967353;28;20094;-44
2023/07/13 02:58:23;;;;;;;4.28;1.77;;;;;;;14.72;72.62;100594.06;4967983;28;20043;-46
2023/07/13 03:00:50;;;;;;;5.28;1.77;;;;;;;14.75;72.74;100593.31;5009623;22;20069;-45
2023/07/13 03:03:17;;;;;;;5.85;2.03;;;;;;;14.73;72.79;100590.09;4987547;28;20480;-45
2023/07/13 03:05:50;;;;;;;6.82;2.10;;;;;;;14.76;73.05;100596.91;4990132;28;20054;-45
2023/07/13 03:08:18;;;;;;;8.68;1.88;;;;;;;14.77;72.83;100590.97;4972074;28;20050;-44
2023/07/13 03:10:45;;;;;;;10.15;1.70;;;;;;;14.81;72.99;100597.38;4984570;28;20104;-47
2023/07/13 03:13:12;;;;;;;10.23;2.85;;;;;;;14.80;73.05;100590.19;4989694;28;20053;-52
2023/07/13 03:15:38;;;;;;;5.03;1.65;;;;;;;14.78;73.00;100586.97;4989640;28;20507;-46
2023/07/13 03:18:05;;;;;;;5.55;1.90;;;;;;;14.76;73.05;100594.94;4987194;28;20058;-45
2023/07/13 03:20:34;;;;;;;2.45;1.67;;;;;;;14.71;73.19;100586.09;4986393;28;20046;-45
2023/07/13 03:23:00;;;;;;;5.45;1.80;;;;;;;14.68;73.22;100589.63;4989715;28;20039;-45
2023/07/13 03:25:27;;;;;;;5.45;1.75;;;;;;;14.66;73.19;100587.22;4989980;28;20034;-44
2023/07/13 03:27:54;;;;;;;8.48;2.17;;;;;;;14.64;73.37;100586.78;4990628;28;20183;-48
2023/07/13 03:30:21;;;;;;;8.68;2.63;;;;;;;14.63;73.48;100586.00;4988382;28;20100;-45
2023/07/13 03:32:48;;;;;;;10.98;2.03;;;;;;;14.64;73.42;100584.81;4989267;28;20638;-46
2023/07/13 03:35:15;;;;;;;4.88;1.83;;;;;;;14.63;73.40;100579.63;4990547;28;20046;-45
2023/07/13 03:37:42;;;;;;;2.88;1.90;;;;;;;14.62;73.45;100583.56;4988768;28;20046;-46
2023/07/13 03:40:10;;;;;;;10.68;1.80;;;;;;;14.62;73.46;100589.13;4989798;28;20042;-49
2023/07/13 03:42:37;;;;;;;5.78;1.58;;;;;;;14.58;73.49;100569.59;4990125;28;20403;-44
2023/07/13 03:45:05;;;;;;;4.53;1.80;;;;;;;14.59;73.71;100584.31;4988645;28;20038;-44
2023/07/13 03:47:31;;;;;;;6.80;2.67;;;;;;;14.59;73.66;100576.78;4989158;28;20038;-45
2023/07/13 03:49:58;;;;;;;5.82;1.63;;;;;;;14.59;73.66;100578.75;4992666;28;20038;-44
2023/07/13 03:52:25;;;;;;;6.88;3.08;;;;;;;14.58;73.53;100588.31;4976961;28;20101;-46
2023/07/13 03:54:52;;;;;;;11.75;3.20;;;;;;;14.53;73.68;100591.41;4994177;28;20050;-45
2023/07/13 03:57:19;;;;;;;10.73;2.00;;;;;;;14.46;73.67;100602.44;4994562;28;20046;-45
2023/07/13 03:59:46;;;;;;;10.73;1.90;;;;;;;14.39;73.90;100591.19;4995164;28;20081;-44
2023/07/13 04:02:12;;;;;;;6.55;1.90;;;;;;;14.35;74.23;100598.69;5006655;28;20108;-44
2023/07/13 04:04:42;;;;;;;5.30;1.75;;;;;;;14.34;74.11;100602.66;5013760;28;20049;-45
2023/07/13 04:07:09;;;;;;;6.72;2.28;;;;;;;14.32;74.35;100602.22;5014081;28;20057;-45
2023/07/13 04:09:36;;;;;;;10.00;2.20;;;;;;;14.31;74.38;100589.44;5014117;28;20056;-45
2023/07/13 04:12:03;;;;;;;3.83;1.95;;;;;;;14.30;74.49;100593.38;5011984;28;20046;-45
2023/07/13 04:14:30;;;;;;;5.75;1.73;;;;;;;14.31;74.60;100597.78;5013228;28;20052;-46
2023/07/13 04:16:57;;;;;;;4.88;1.70;;;;;;;14.31;74.69;100595.00;5012251;28;20045;-46
2023/07/13 04:19:24;;;;;;;8.75;1.40;;;;;;;14.34;74.87;100595.09;5008402;28;20050;-46
2023/07/13 04:21:51;;;;;;;4.55;1.60;;;;;;;14.40;74.75;100592.81;5012575;28;20042;-44
2023/07/13 04:24:17;;;;;;;5.32;1.58;;;;;;;14.45;74.76;100606.41;5012356;28;20045;-44
2023/07/13 04:26:45;;;;;;;6.10;2.25;;;;;;;14.44;74.67;100602.81;5011142;28;20073;-45
2023/07/13 04:29:11;;;;;;;9.50;1.88;;;;;;;14.46;74.72;100608.00;4994466;28;20048;-45
2023/07/13 04:31:38;;;;;;;6.80;1.35;;;;;;;14.45;74.85;100615.56;5011366;28;20053;-45
2023/07/13 04:34:05;;;;;;;8.35;1.67;;;;;;;14.45;74.96;100610.00;5012669;28;20608;-45
2023/07/13 04:36:32;;;;;;;3.90;2.03;;;;;;;14.47;75.06;100604.06;4993364;28;20053;-46
2023/07/13 04:38:59;;;;;;;7.53;2.22;;;;;;;14.44;74.98;100607.56;5011112;28;20050;-44
2023/07/13 04:41:26;;;;;;;6.05;2.08;;;;;;;14.45;75.23;100617.56;5011039;28;20152;-45
2023/07/13 04:43:53;;;;;;;6.20;1.73;;;;;;;14.46;75.13;100613.56;5011926;28;20052;-45
2023/07/13 04:46:23;;;;;;;5.47;1.80;;;;;;;14.47;75.24;100616.00;5017200;28;20140;-44
2023/07/13 04:48:53;;;;;;;6.32;1.52;;;;;;;14.43;75.28;100623.47;5010659;28;20452;-46
2023/07/13 04:51:20;;;;;;;6.65;1.90;;;;;;;14.39;75.44;100613.47;5009980;28;20045;-45
2023/07/13 04:53:46;;;;;;;7.35;2.28;;;;;;;14.37;75.56;100613.03;5011759;28;20080;-44
2023/07/13 04:56:13;;;;;;;8.18;2.10;;;;;;;14.39;75.38;100616.25;5012223;28;20050;-45
2023/07/13 04:58:40;;;;;;;9.02;1.67;;;;;;;14.40;75.50;100620.66;5011433;28;20077;-47
2023/07/13 05:01:09;;;;;;;11.30;2.67;;;;;;;14.42;75.52;100621.91;5009957;28;20062;-44
2023/07/13 05:03:36;;;;;;;7.80;1.40;;;;;;;14.45;75.42;100628.69;5010763;28;20077;-45
2023/07/13 05:06:06;;;;;;;3.28;1.63;;;;;;;14.44;75.40;100627.88;5010122;28;20056;-45
2023/07/13 05:08:33;;;;;;;4.15;1.55;;;;;;;14.45;75.40;100621.16;5010737;28;20570;-48
2023/07/13 05:11:01;;;;;;;7.82;1.35;;;;;;;14.44;75.60;100627.06;5010046;28;20187;-45
2023/07/13 05:13:28;;;;;;;7.68;1.95;;;;;;;14.41;75.61;100622.25;5009871;28;20034;-44
2023/07/13 05:16:03;;;;;;;6.88;1.83;;;;;;;14.41;75.64;100620.28;5017706;28;20123;-44
2023/07/13 05:18:30;;;;;;;7.65;1.50;;;;;;;14.39;75.81;100624.59;5010195;28;20120;-46
2023/07/13 05:20:59;;;;;;;6.85;2.05;;;;;;;14.34;75.92;100622.16;5010680;28;20526;-47
2023/07/13 05:23:26;;;;;;;7.80;1.58;;;;;;;14.33;75.95;100620.53;5011242;28;20487;-44
2023/07/13 05:25:56;;;;;;;5.70;1.80;;;;;;;14.39;76.15;100630.19;4996065;28;20054;-44
2023/07/13 05:28:23;;;;;;;7.43;1.70;;;;;;;14.45;75.94;100629.50;5007944;28;20444;-46
2023/07/13 05:30:50;;;;;;;10.38;3.92;;;;;;;14.49;76.00;100630.34;5010001;28;20038;-45
2023/07/13 05:33:18;;;;;;;9.55;1.95;;;;;;;14.55;76.12;100637.22;5012141;28;20526;-45
2023/07/13 05:35:44;;;;;;;11.10;2.78;;;;;;;14.62;75.96;100639.28;5011018;28;20041;-44
2023/07/13 05:38:11;;;;;;;6.63;1.98;;;;;;;14.69;75.95;100633.03;5007398;28;20042;-45
2023/07/13 05:40:39;;;;;;;7.25;1.48;;;;;;;14.75;75.95;100626.75;5008371;28;20054;-45
2023/07/13 05:43:05;;;;;;;8.63;1.90;;;;;;;14.84;76.04;100635.66;5011836;28;20046;-46
2023/07/13 05:45:32;;;;;;;5.75;1.70;;;;;;;14.86;75.83;100627.72;5018100;28;20488;-44
2023/07/13 05:47:59;;;;;;;6.10;1.88;;;;;;;14.90;75.86;100639.72;5011676;28;20046;-46
2023/07/13 05:50:26;;;;;;;7.30;2.05;;;;;;;14.89;75.87;100632.53;5012068;28;20121;-46
2023/07/13 05:52:53;;;;;;;3.90;1.70;;;;;;;14.85;76.05;100637.25;5011768;28;20046;-45
2023/07/13 05:55:20;;;;;;;7.63;2.38;;;;;;;14.87;76.12;100640.47;5000505;28;20049;-45
2023/07/13 05:57:47;;;;;;;8.15;1.90;;;;;;;14.90;76.13;100636.94;5011553;28;20562;-44
2023/07/13 06:00:15;;;;;;;5.85;1.80;;;;;;;14.99;76.16;100637.44;5011988;28;20054;-45
2023/07/13 06:02:42;;;;;;;9.30;1.92;;;;;;;15.07;76.02;100632.78;5010011;28;20042;-44
2023/07/13 06:05:09;;;;;;;7.40;2.00;;;;;;;15.09;75.96;100634.00;5009755;28;20410;-45
2023/07/13 06:07:36;;;;;;;9.13;1.88;;;;;;;15.16;76.16;100634.13;5009320;28;20756;-44
2023/07/13 06:10:03;;;;;;;9.10;2.00;;;;;;;15.24;76.08;100641.38;4992054;28;20100;-45
2023/07/13 06:12:30;;;;;;;8.52;1.85;;;;;;;15.30;75.93;100641.88;5010066;28;20038;-44
2023/07/13 06:14:57;;;;;;;6.97;2.17;;;;;;;15.34;75.86;100647.47;5016789;28;20045;-45
2023/07/13 06:17:24;;;;;;;2.70;1.40;;;;;;;15.37;75.87;100650.31;5010202;28;20045;-45
2023/07/13 06:19:51;;;;;;;8.02;1.55;;;;;;;15.42;75.82;100654.75;5009766;28;20048;-45
2023/07/13 06:22:17;;;;;;;7.60;2.30;;;;;;;15.47;75.72;100663.59;5008747;28;20050;-45
2023/07/13 06:24:44;;;;;;;7.22;1.95;;;;;;;15.47;75.50;100658.03;5010062;28;20116;-44
2023/07/13 06:27:11;;;;;;;10.60;2.40;;;;;;;15.43;75.56;100667.53;5008401;28;20152;-44
2023/07/13 06:29:39;;;;;;;7.57;1.83;;;;;;;15.37;75.73;100663.44;5010342;28;20045;-45
2023/07/13 06:32:07;;;;;;;5.25;1.58;;;;;;;15.37;75.64;100658.69;5006907;28;20045;-45
2023/07/13 06:34:33;;;;;;;6.55;1.85;;;;;;;15.38;75.74;100673.44;5009939;28;20130;-45
2023/07/13 06:37:00;;;;;;;4.60;1.90;;;;;;;15.37;75.74;100666.22;5009421;28;20046;-44
2023/07/13 06:39:29;;;;;;;6.82;1.60;;;;;;;15.39;75.82;100670.25;5009849;28;20048;-44
2023/07/13 06:41:56;;;;;;;7.15;1.92;;;;;;;15.42;75.79;100671.47;5010789;28;20507;-45
2023/07/13 06:44:23;;;;;;;9.18;1.80;;;;;;;15.46;75.99;100666.78;5011224;28;20038;-46
2023/07/13 06:46:50;;;;;;;6.13;1.90;;;;;;;15.53;75.81;100676.03;5008012;28;20042;-45
2023/07/13 06:49:17;;;;;;;5.82;1.75;;;;;;;15.56;75.83;100671.69;4993438;28;20085;-44
2023/07/13 06:51:44;;;;;;;8.77;2.38;;;;;;;15.60;75.78;100672.53;5011116;28;20536;-45
2023/07/13 06:54:11;;;;;;;9.50;1.80;;;;;;;15.67;75.73;100670.63;5011406;28;20046;-47
2023/07/13 06:56:37;;;;;;;12.18;2.28;;;;;;;15.72;75.75;100675.06;5011006;28;20064;-45
2023/07/13 06:59:04;;;;;;;6.20;2.00;;;;;;;15.78;75.69;100679.91;5011217;28;20052;-46
2023/07/13 07:01:31;;;;;;;6.28;1.48;;;;;;;15.78;75.49;100673.53;5011638;28;20042;-45
2023/07/13 07:03:58;;;;;;;7.00;1.60;;;;;;;15.84;75.72;100672.00;5011024;28;20046;-46
2023/07/13 07:06:24;;;;;;;10.88;1.73;;;;;;;16.02;75.86;100670.19;5009975;28;20129;-45
2023/07/13 07:08:52;;;;;;;6.50;2.55;;;;;;;16.22;75.51;100682.78;5006603;28;20547;-45
2023/07/13 07:11:24;;;;;;;5.72;1.75;;;;;;;16.32;75.28;100679.28;5010229;28;20492;-45
2023/07/13 07:13:52;;;;;;;6.18;1.65;;;;;;;16.39;75.12;100681.31;5006822;28;20069;-45
2023/07/13 07:16:20;;;;;;;9.20;1.80;;;;;;;16.49;74.90;100685.41;5007602;28;20045;-49
2023/07/13 07:18:47;;;;;;;8.18;2.25;;;;;;;16.51;74.93;100688.63;4994375;28;20042;-46
2023/07/13 07:21:15;;;;;;;3.00;1.65;;;;;;;16.53;74.62;100680.66;5007805;28;20530;-45
2023/07/13 07:23:42;;;;;;;5.72;2.35;;;;;;;16.59;74.58;100681.94;5006557;28;20072;-44
2023/07/13 07:26:10;;;;;;;8.02;1.65;;;;;;;16.74;74.56;100692.81;5013673;28;20118;-47
2023/07/13 07:28:37;;;;;;;7.57;2.08;;;;;;;16.85;74.27;100695.69;5009635;28;20062;-45
2023/07/13 07:31:11;;;;;;;5.70;2.03;;;;;;;16.83;73.89;100687.72;5012735;28;20060;-46
2023/07/13 07:33:41;;;;;;;7.22;2.42;;;;;;;16.88;73.77;100694.94;5012166;28;20069;-46
2023/07/13 07:36:08;;;;;;;6.20;1.38;;;;;;;16.91;73.65;100685.75;5010481;28;20041;-45
2023/07/13 07:38:37;;;;;;;5.00;1.48;;;;;;;17.08;73.86;100696.25;5009689;28;20045;-45
2023/07/13 07:41:05;;;;;;;3.97;1.40;;;;;;;17.28;73.74;100689.19;5011898;28;20373;-45
2023/07/13 07:43:35;;;;;;;5.28;1.45;;;;;;;17.41;73.54;100696.06;5014297;28;20073;-45
2023/07/13 07:46:02;;;;;;;6.32;1.58;;;;;;;17.56;73.72;100699.72;5020899;28;20065;-45
2023/07/13 07:48:30;;;;;;;6.57;1.48;;;;;;;17.68;73.17;100695.78;5013360;28;20046;-45
2023/07/13 07:50:57;;;;;;;2.90;1.52;;;;;;;17.74;72.61;100699.81;5011938;28;20513;-45
2023/07/13 07:53:24;;;;;;;3.15;1.13;;;;;;;17.76;72.75;100698.22;4996248;28;20041;-45
2023/07/13 07:55:51;;;;;;;4.50;1.00;;;;;;;17.90;72.71;100714.25;5014108;28;20073;-45
2023/07/13 07:58:21;;;;;;;3.13;1.02;;;;;;;18.18;73.42;100708.75;5013980;28;20049;-45
2023/07/13 08:00:50;;;;;;;5.95;1.10;;;;;;;18.65;72.41;100711.22;5013712;28;20571;-45
2023/07/13 08:03:20;;;;;;;3.90;1.13;;;;;;;18.95;72.05;100705.19;5014319;28;20541;-45
2023/07/13 08:05:53;;;;;;;3.08;1.00;;;;;;;19.44;71.30;100707.91;5013809;28;20076;-45
2023/07/13 08:08:22;;;;;;;2.47;1.00;;;;;;;20.08;69.83;100701.97;5013808;28;20038;-45
2023/07/13 08:10:49;;;;;;;3.72;0.88;;;;;;;20.48;68.08;100708.97;5012074;28;20049;-45
2023/07/13 08:13:16;;;;;;;5.95;1.92;;;;;;;20.46;66.92;100706.59;5013486;28;20053;-45
2023/07/13 08:15:43;;;;;;;2.53;0.80;;;;;;;20.33;65.44;100705.44;5024209;28;20054;-45
2023/07/13 08:18:10;;;;;;;2.97;0.90;;;;;;;20.07;65.31;100716.47;5013431;28;20496;-46
2023/07/13 08:20:40;;;;;;;1.65;0.90;;;;;;;20.65;65.29;100708.06;5013242;28;20046;-45
2023/07/13 08:23:11;;;;;;;3.10;0.85;;;;;;;21.64;64.28;100723.94;5013738;28;20058;-46
2023/07/13 08:25:38;;;;;;;3.58;1.17;;;;;;;21.99;62.53;100720.72;5013495;28;20049;-48
2023/07/13 08:28:04;;;;;;;1.73;1.25;;;;;;;21.78;61.75;100716.13;5013529;28;20049;-47
2023/07/13 08:30:31;;;;;;;1.27;0.70;;;;;;;21.73;60.63;100715.78;5013264;28;20046;-46
2023/07/13 08:32:58;;;;;;;3.08;0.85;;;;;;;22.22;60.23;100720.78;5013513;28;20049;-46
2023/07/13 08:35:25;;;;;;;0.50;0.43;;;;;;;22.71;58.65;100715.63;5012521;28;20096;-45
2023/07/13 08:37:52;;;;;;;2.95;0.88;;;;;;;22.88;57.49;100725.81;5013392;28;20120;-45
2023/07/13 08:40:24;;;;;;;3.35;0.98;;;;;;;22.50;56.89;100724.41;5013444;28;20049;-46
2023/07/13 08:42:58;;;;;;;3.58;0.93;;;;;;;22.59;56.90;100721.81;5011684;28;20057;-45
2023/07/13 08:45:37;;;;;;;3.97;1.02;;;;;;;22.76;55.91;100717.97;5019197;28;20770;-46
2023/07/13 08:48:11;;;;;;;1.13;0.70;;;;;;;22.50;55.51;100718.75;5013171;28;20041;-45
2023/07/13 08:50:52;;;;;;;2.05;1.48;;;;;;;22.28;55.46;100716.25;5010937;28;20049;-45
2023/07/13 08:53:36;;;;;;;2.67;0.98;;;;;;;22.05;55.36;100704.94;5013107;28;20049;-46
2023/07/13 08:56:09;;;;;;;13.00;1.77;;;;;;;21.77;55.26;100702.44;5013266;28;20053;-47
2023/07/13 08:58:38;;;;;;;3.20;0.80;;;;;;;21.55;55.55;100703.94;5008747;28;20042;-45
2023/07/13 09:01:22;;;;;;;2.85;0.93;;;;;;;21.38;55.59;100708.56;5017268;28;20050;-45
2023/07/13 09:04:09;;;;;;;1.50;0.70;;;;;;;22.01;55.22;100709.81;5012421;28;20061;-45
2023/07/13 09:07:20;;;;;;;1.23;0.75;;;;;;;22.97;54.15;100703.47;5012646;28;20162;-46
2023/07/13 09:10:05;;;;;;;2.13;0.52;;;;;;;23.77;52.48;100710.81;4996116;28;20046;-45
2023/07/13 09:13:04;;;;;;;1.95;1.00;;;;;;;24.54;51.68;100713.94;5011225;28;20044;-51
2023/07/13 09:15:34;;;;;;;2.28;0.98;;;;;;;24.97;50.32;100708.00;5022985;28;20513;-47
2023/07/13 09:18:27;;;;;;;4.70;1.20;;;;;;;24.99;49.57;100705.56;5002135;28;20528;-45
2023/07/13 09:21:02;;;;;;;2.33;0.95;;;;;;;24.91;48.92;100698.47;5004878;28;20480;-47
2023/07/13 09:23:30;;;;;;;1.55;0.95;;;;;;;25.12;48.37;100710.03;5012441;28;20046;-45
2023/07/13 09:26:22;;;;;;;2.88;0.88;;;;;;;25.68;47.06;100702.00;5008750;28;20045;-46
2023/07/13 09:28:51;;;;;;;;;;;;;;;25.94;47.63;100700.03;5011725;28;20076;-47
2023/07/13 09:31:33;;;;;;;1.63;0.63;;;;;;;26.10;47.11;100711.28;5012596;28;19937;-45
2023/07/13 09:34:01;;;;;;;0.90;0.68;;;;;;;25.84;46.01;100710.44;5007690;28;20046;-46
2023/07/13 09:36:31;;;;;;;1.92;0.70;;;;;;;25.20;46.35;100700.13;5012369;28;20053;-45
2023/07/13 09:39:03;;;;;;;2.13;1.05;;;;;;;25.21;46.62;100692.38;5012061;28;20046;-46
2023/07/13 09:41:46;;;;;;;1.40;0.90;;;;;;;25.76;46.21;100702.59;5012101;28;20042;-47
2023/07/13 09:44:16;;;;;;;1.58;0.88;;;;;;;26.02;45.13;100705.03;5014955;28;20087;-48
2023/07/13 09:46:52;;;;;;;2.80;0.93;;;;;;;25.49;44.74;100707.84;5014897;28;20503;-45
2023/07/13 09:49:24;;;;;;;1.90;0.85;;;;;;;24.98;45.49;100710.41;5012123;28;20049;-46
2023/07/13 09:52:06;;;;;;;1.67;1.08;;;;;;;24.65;45.56;100715.25;5011718;28;20038;-46
2023/07/13 09:54:35;;;;;;;1.90;0.77;;;;;;;24.38;46.71;100705.44;5010669;28;20104;-45
2023/07/13 09:57:11;;;;;;;1.70;0.60;;;;;;;24.59;46.49;100714.22;5012185;28;20041;-46
2023/07/13 09:59:46;;;;;;;1.88;0.63;;;;;;;25.17;45.30;100705.88;5011472;28;20104;-45
2023/07/13 10:02:30;;;;;;;1.23;0.70;;;;;;;25.69;44.86;100720.63;5008778;28;20046;-45
2023/07/13 10:05:03;;;;;;;2.22;0.60;;;;;;;26.18;43.74;100720.41;5011585;28;20063;-47
2023/07/13 10:07:31;;;;;;;2.22;0.57;;;;;;;26.49;43.26;100715.75;5011749;28;20045;-47
2023/07/13 10:10:00;;;;;;;1.55;0.90;;;;;;;26.51;43.05;100713.25;5011280;28;20590;-46
2023/07/13 10:12:30;;;;;;;3.97;1.63;;;;;;;26.08;42.80;100713.00;5009531;28;20041;-46
2023/07/13 10:15:00;;;;;;;3.65;0.98;;;;;;;25.56;43.68;100719.78;5017538;28;20115;-45
2023/07/13 10:17:47;;;;;;;1.70;0.90;;;;;;;25.36;44.33;100710.59;5013866;28;20400;-46
2023/07/13 10:20:14;;;;;;;3.60;1.00;;;;;;;24.98;44.72;100709.59;5011557;28;20092;-46
2023/07/13 10:23:01;;;;;;;1.30;0.88;;;;;;;24.95;44.65;100716.97;5011302;28;20145;-46
2023/07/13 10:25:39;;;;;;;1.42;0.93;;;;;;;24.73;45.27;100721.53;5010981;28;20034;-46
2023/07/13 10:28:12;;;;;;;1.05;0.70;;;;;;;25.06;44.14;100713.84;5011467;28;20510;-46
2023/07/13 10:30:45;;;;;;;2.33;1.02;;;;;;;25.45;43.73;100716.41;5010028;28;20049;-46
2023/07/13 10:33:13;;;;;;;1.63;0.70;;;;;;;25.56;43.72;100714.09;5011590;28;20046;-46
2023/07/13 10:35:43;;;;;;;1.67;0.93;;;;;;;25.80;43.56;100720.31;4993049;28;20045;-46
2023/07/13 10:38:15;;;;;;;1.67;0.80;;;;;;;25.84;42.98;100716.09;5011572;28;20048;-46
2023/07/13 10:41:06;;;;;;;0.70;0.70;;;;;;;25.70;42.39;100722.22;5010510;28;20044;-47
2023/07/13 10:43:42;;;;;;;1.42;0.80;;;;;;;25.61;42.78;100718.44;5010741;28;20197;-46
2023/07/13 10:46:15;;;;;;;3.72;0.75;;;;;;;25.56;42.33;100711.28;5019214;28;20045;-45
2023/07/13 10:48:46;;;;;;;3.33;0.68;;;;;;;25.24;42.29;100711.34;5011347;28;20100;-46
2023/07/13 10:51:15;;;;;;;3.80;0.93;;;;;;;24.76;43.04;100715.78;5011562;28;20129;-46
2023/07/13 10:53:43;;;;;;;1.92;1.33;;;;;;;24.82;43.29;100718.91;5011379;28;20065;-46
2023/07/13 10:56:12;;;;;;;2.00;0.50;;;;;;;24.61;43.13;100719.41;5010920;28;20507;-46
2023/07/13 10:58:41;;;;;;;1.60;0.80;;;;;;;24.17;43.19;100718.06;5010461;28;20463;-46
2023/07/13 11:01:18;;;;;;;1.77;0.93;;;;;;;23.99;43.81;100717.59;5012455;28;20563;-47
2023/07/13 11:03:51;;;;;;;3.53;0.90;;;;;;;23.81;44.18;100714.34;5015468;28;20054;-46
2023/07/13 11:06:22;;;;;;;3.45;0.88;;;;;;;23.66;45.10;100713.06;4997789;28;20682;-46
2023/07/13 11:08:49;;;;;;;4.22;1.42;;;;;;;23.33;44.98;100712.88;5014991;28;20104;-46
2023/07/13 11:11:38;;;;;;;1.73;1.00;;;;;;;22.91;45.38;100702.34;5014834;28;20046;-48
2023/07/13 11:14:27;;;;;;;2.90;0.82;;;;;;;22.42;45.01;100706.78;5012969;28;20046;-46
2023/07/13 11:16:54;;;;;;;3.08;1.10;;;;;;;22.05;45.97;100699.28;5006610;28;20060;-45
2023/07/13 11:19:21;;;;;;;1.48;1.05;;;;;;;21.88;46.61;100707.97;4997005;28;20077;-48
2023/07/13 11:22:07;;;;;;;2.72;0.90;;;;;;;21.65;47.33;100709.44;5014789;28;20038;-46
2023/07/13 11:24:58;;;;;;;1.38;0.52;;;;;;;21.55;47.07;100704.72;5001901;28;20081;-46
2023/07/13 11:28:10;;;;;;;1.85;0.93;;;;;;;21.70;47.14;100700.53;5014528;28;20054;-46
2023/07/13 11:30:49;;;;;;;3.10;1.38;;;;;;;21.97;46.55;100697.78;5007304;28;20057;-45
2023/07/13 11:33:18;;;;;;;1.83;0.80;;;;;;;22.08;46.18;100706.88;5014556;28;20045;-46
2023/07/13 11:36:03;;;;;;;4.15;0.80;;;;;;;22.07;46.44;100701.66;5001524;28;20049;-46